Terminal Aerodrome Forecast
Issued by NWS

Home | Current Version | Previous Version | Text Only | Print | Product List | Glossary On
Versions: 1 2 3 4 5 6 7 8 9 10 11 12 13 14 15 16
000
FTUS46 KSEW 242023 AAA
TAFCLM
TAF AMD
KCLM 242023Z 2420/2518 04005KT P6SM VCSH SCT035 BKN110 OVC200
      TEMPO 2421/2423 -RA
     FM250200 VRB03KT P6SM FEW060 OVC110=

USA.gov is the U.S. government's official web portal to all federal, state and local government web resources and services.